Time;durP1;ratioP1;P1;durP2;ratioP2;P2;SDS_P1;SDS_P2;PMS_P1;PMS_P2;Temp;Humidity;BMP_temperature;BMP_pressure;BME280_temperature;BME280_humidity;BME280_pressure;Samples;Min_cycle;Max_cycle;Signal;HPM_P1;HPM_P2
2021/06/04 00:02:10;;;;;;;;;;;15.70;99.90;;;;;;6159445;23;19920;-78
2021/06/04 00:04:41;;;;;;;;;;;15.70;99.90;;;;;;6185073;23;20396;-78
2021/06/04 00:07:13;;;;;;;;;;;15.70;99.90;;;;;;6160078;23;19948;-78
2021/06/04 00:09:40;;;;;;;;;;;15.60;99.90;;;;;;6183059;23;20000;-76
2021/06/04 00:12:12;;;;;;;;;;;15.60;99.90;;;;;;6183677;23;19920;-78
2021/06/04 00:14:40;;;;;;;;;;;15.60;99.90;;;;;;6183975;23;19955;-78
2021/06/04 00:17:12;;;;;;;;;;;15.60;99.90;;;;;;6183606;23;19927;-78
2021/06/04 00:19:39;;;;;;;;;;;15.60;99.90;;;;;;6183009;23;19982;-78
2021/06/04 00:22:12;;;;;;;;;;;15.50;99.90;;;;;;6183217;23;20294;-77
2021/06/04 00:24:45;;;;;;;;;;;15.50;99.90;;;;;;6183342;23;20234;-78
2021/06/04 00:27:18;;;;;;;;;;;15.40;99.90;;;;;;6183715;23;19999;-77
2021/06/04 00:29:45;;;;;;;;;;;15.40;99.90;;;;;;6183617;23;19999;-77
2021/06/04 00:32:19;;;;;;;;;;;15.40;99.90;;;;;;6159776;23;19921;-78
2021/06/04 00:34:46;;;;;;;;;;;15.50;99.90;;;;;;6183521;23;19951;-78
2021/06/04 00:37:18;;;;;;;;;;;15.50;99.90;;;;;;6191335;23;19928;-78
2021/06/04 00:39:45;;;;;;;;;;;15.50;99.90;;;;;;6168017;23;19925;-78
2021/06/04 00:42:15;;;;;;;;;;;15.50;99.90;;;;;;6189949;23;19970;-77
2021/06/04 00:44:51;;;;;;;;;;;15.60;99.90;;;;;;6189090;23;19920;-77
2021/06/04 00:47:20;;;;;;;;;;;15.50;99.90;;;;;;6183477;23;19920;-78
2021/06/04 00:49:52;;;;;;;;;;;15.60;99.90;;;;;;6159480;23;19927;-78
2021/06/04 00:52:32;;;;;;;;;;;15.60;99.90;;;;;;6183028;23;19927;-78
2021/06/04 00:55:03;;;;;;;;;;;15.60;99.90;;;;;;6159213;23;19921;-77
2021/06/04 00:57:35;;;;;;;;;;;15.60;99.90;;;;;;6159495;23;19927;-77
2021/06/04 01:00:10;;;;;;;;;;;15.60;99.90;;;;;;6159108;23;19924;-78
2021/06/04 01:02:43;;;;;;;;;;;15.70;99.90;;;;;;6184512;23;19998;-77
2021/06/04 01:05:10;;;;;;;;;;;15.70;99.90;;;;;;6184836;23;20297;-78
2021/06/04 01:08:01;;;;;;;;;;;15.70;99.90;;;;;;6184864;23;19924;-78
2021/06/04 01:10:27;;;;;;;;;;;15.70;99.90;;;;;;6184664;23;19920;-78
2021/06/04 01:13:13;;;;;;;;;;;15.60;99.90;;;;;;6185097;23;19920;-78
2021/06/04 01:15:59;;;;;;;;;;;15.70;99.90;;;;;;6184802;23;19947;-77
2021/06/04 01:18:48;;;;;;;;;;;15.70;99.90;;;;;;6160440;23;19924;-77
2021/06/04 01:21:30;;;;;;;;;;;15.80;99.90;;;;;;6183713;23;19927;-78
2021/06/04 01:24:11;;;;;;;;;;;15.80;99.90;;;;;;6160694;23;19920;-77
2021/06/04 01:26:44;;;;;;;;;;;15.80;99.90;;;;;;6184711;23;20002;-78
2021/06/04 01:29:16;;;;;;;;;;;15.90;99.90;;;;;;6159399;23;20349;-77
2021/06/04 01:31:58;;;;;;;;;;;15.90;99.90;;;;;;6161192;23;19920;-77
2021/06/04 01:34:28;;;;;;;;;;;15.90;99.90;;;;;;6185074;23;19921;-78
2021/06/04 01:37:07;;;;;;;;;;;15.90;99.90;;;;;;6184750;23;19927;-78
2021/06/04 01:39:47;;;;;;;;;;;15.90;99.90;;;;;;6184308;23;19943;-77
2021/06/04 01:42:17;;;;;;;;;;;15.90;99.90;;;;;;6184844;23;19920;-78
2021/06/04 01:44:55;;;;;;;;;;;15.80;99.90;;;;;;6184868;23;19920;-78
2021/06/04 01:47:28;;;;;;;;;;;15.80;99.90;;;;;;6184765;23;19962;-77
2021/06/04 01:50:01;;;;;;;;;;;15.80;99.90;;;;;;6161157;23;20252;-78
2021/06/04 01:52:35;;;;;;;;;;;15.80;99.90;;;;;;6184765;23;19925;-77
2021/06/04 01:55:14;;;;;;;;;;;15.90;99.90;;;;;;6160159;23;19920;-77
2021/06/04 01:57:45;;;;;;;;;;;15.80;99.90;;;;;;6160156;23;19920;-78
2021/06/04 02:00:32;;;;;;;;;;;15.90;99.90;;;;;;6159726;23;19920;-78
2021/06/04 02:03:11;;;;;;;;;;;15.90;99.90;;;;;;6184916;23;19927;-78
2021/06/04 02:06:01;;;;;;;;;;;15.90;99.90;;;;;;6185122;23;19998;-79
2021/06/04 02:08:52;;;;;;;;;;;15.90;99.90;;;;;;6161137;23;19920;-78
2021/06/04 02:11:32;;;;;;;;;;;15.90;99.90;;;;;;6162340;23;19999;-77
2021/06/04 02:14:01;;;;;;;;;;;15.90;99.90;;;;;;6159964;23;19920;-77
2021/06/04 02:16:32;;;;;;;;;;;15.90;99.90;;;;;;6184613;23;19920;-78
2021/06/04 02:19:17;;;;;;;;;;;16.00;99.90;;;;;;6184247;23;20393;-78
2021/06/04 02:22:05;;;;;;;;;;;15.90;99.90;;;;;;6184117;23;20003;-77
2021/06/04 02:24:58;;;;;;;;;;;15.90;99.90;;;;;;6161729;23;19926;-77
2021/06/04 02:27:32;;;;;;;;;;;15.90;99.90;;;;;;6159886;23;20008;-78
2021/06/04 02:30:10;;;;;;;;;;;15.90;99.90;;;;;;6159615;23;19996;-77
2021/06/04 02:32:40;;;;;;;;;;;15.90;99.90;;;;;;6184198;23;20173;-78
2021/06/04 02:35:10;;;;;;;;;;;15.80;99.90;;;;;;6184330;23;19925;-77
2021/06/04 02:37:44;;;;;;;;;;;15.80;99.90;;;;;;6184483;23;19971;-78
2021/06/04 02:40:18;;;;;;;;;;;15.80;99.90;;;;;;6159598;23;19967;-77
2021/06/04 02:42:45;;;;;;;;;;;15.70;99.90;;;;;;6184181;23;20011;-78
2021/06/04 02:45:18;;;;;;;;;;;15.60;99.90;;;;;;6183883;23;20002;-78
2021/06/04 02:47:47;;;;;;;;;;;15.50;99.90;;;;;;6159314;23;19966;-78
2021/06/04 02:50:30;;;;;;;;;;;15.60;99.90;;;;;;6159073;23;19920;-78
2021/06/04 02:53:13;;;;;;;;;;;15.50;99.90;;;;;;6183472;23;20297;-78
2021/06/04 02:56:04;;;;;;;;;;;15.60;99.90;;;;;;6183932;23;19920;-77
2021/06/04 02:58:34;;;;;;;;;;;15.60;99.90;;;;;;6160119;23;19924;-78
2021/06/04 03:01:07;;;;;;;;;;;15.70;99.90;;;;;;6160175;23;20416;-77
2021/06/04 03:03:36;;;;;;;;;;;15.70;99.90;;;;;;6159405;23;19925;-77
2021/06/04 03:06:03;;;;;;;;;;;15.70;99.90;;;;;;6159594;23;19924;-78
2021/06/04 03:08:35;;;;;;;;;;;15.70;99.90;;;;;;6184181;23;19924;-78
2021/06/04 03:11:08;;;;;;;;;;;15.70;99.90;;;;;;6159782;23;20395;-77
2021/06/04 03:13:41;;;;;;;;;;;15.60;99.90;;;;;;6183681;23;20406;-78
2021/06/04 03:16:13;;;;;;;;;;;15.70;99.90;;;;;;6183622;23;19924;-78
2021/06/04 03:18:47;;;;;;;;;;;15.60;99.90;;;;;;6184198;23;19920;-77
2021/06/04 03:21:19;;;;;;;;;;;15.60;99.90;;;;;;6184529;23;19920;-78
2021/06/04 03:23:53;;;;;;;;;;;15.60;99.90;;;;;;6160219;23;19927;-77
2021/06/04 03:26:28;;;;;;;;;;;15.50;99.90;;;;;;6184045;23;19924;-78
2021/06/04 03:28:56;;;;;;;;;;;15.50;99.90;;;;;;6158920;23;20317;-77
2021/06/04 03:31:31;;;;;;;;;;;15.50;99.90;;;;;;6183369;23;19924;-78
2021/06/04 03:33:59;;;;;;;;;;;15.40;99.90;;;;;;6159021;23;19925;-78
2021/06/04 03:36:28;;;;;;;;;;;15.50;99.90;;;;;;6158898;23;19925;-78
2021/06/04 03:38:58;;;;;;;;;;;15.50;99.90;;;;;;6160255;23;20250;-77
2021/06/04 03:41:33;;;;;;;;;;;15.40;99.90;;;;;;6159847;23;19947;-78
2021/06/04 03:44:08;;;;;;;;;;;15.40;99.90;;;;;;6183207;23;19920;-78
2021/06/04 03:46:41;;;;;;;;;;;15.50;99.90;;;;;;6183606;23;19927;-78
2021/06/04 03:49:11;;;;;;;;;;;15.50;99.90;;;;;;6158863;23;19920;-77
2021/06/04 03:51:39;;;;;;;;;;;15.50;99.90;;;;;;6183450;23;19924;-78
2021/06/04 03:54:07;;;;;;;;;;;15.50;99.90;;;;;;6193420;23;19924;-79
2021/06/04 03:56:40;;;;;;;;;;;15.50;99.90;;;;;;6191985;23;19921;-78
2021/06/04 03:59:13;;;;;;;;;;;15.50;99.90;;;;;;6191929;23;19924;-79
2021/06/04 04:01:48;;;;;;;;;;;15.50;99.90;;;;;;6160901;23;19952;-77
2021/06/04 04:04:20;;;;;;;;;;;15.50;99.90;;;;;;6184289;23;19944;-78
2021/06/04 04:06:52;;;;;;;;;;;15.50;99.90;;;;;;6183167;23;19970;-78
2021/06/04 04:09:24;;;;;;;;;;;15.50;99.90;;;;;;6158813;23;19931;-78
2021/06/04 04:11:51;;;;;;;;;;;15.50;99.90;;;;;;6182311;23;19927;-78
2021/06/04 04:14:19;;;;;;;;;;;15.60;99.90;;;;;;6182947;23;19952;-78
2021/06/04 04:16:46;;;;;;;;;;;15.60;99.90;;;;;;6182683;23;19946;-76
2021/06/04 04:19:19;;;;;;;;;;;15.60;99.90;;;;;;6158998;23;19920;-77
2021/06/04 04:21:48;;;;;;;;;;;15.70;99.90;;;;;;6158244;23;19928;-77
2021/06/04 04:24:18;;;;;;;;;;;15.60;99.90;;;;;;6157963;23;19947;-78
2021/06/04 04:26:45;;;;;;;;;;;15.70;99.90;;;;;;6183004;23;19924;-77
2021/06/04 04:29:11;;;;;;;;;;;15.70;99.90;;;;;;6182309;23;20007;-78
2021/06/04 04:31:45;;;;;;;;;;;15.70;99.90;;;;;;6158424;23;19978;-78
2021/06/04 04:34:17;;;;;;;;;;;15.70;99.90;;;;;;6183238;23;20003;-77
2021/06/04 04:36:48;;;;;;;;;;;15.80;99.90;;;;;;6185973;23;19976;-79
2021/06/04 04:39:22;;;;;;;;;;;15.90;99.90;;;;;;6169320;23;19920;-79
2021/06/04 04:41:50;;;;;;;;;;;15.90;99.90;;;;;;6170799;23;19948;-79
2021/06/04 04:44:20;;;;;;;;;;;15.90;99.90;;;;;;6195549;23;19940;-79
2021/06/04 04:46:47;;;;;;;;;;;16.00;99.90;;;;;;6196895;23;19936;-79
2021/06/04 04:49:14;;;;;;;;;;;16.00;99.90;;;;;;6195371;23;19921;-79
2021/06/04 04:51:41;;;;;;;;;;;16.10;99.90;;;;;;6200211;23;19943;-79
2021/06/04 04:54:14;;;;;;;;;;;16.10;99.90;;;;;;6175455;23;19908;-80
2021/06/04 04:57:26;;;;;;;;;;;16.10;99.90;;;;;;6151775;23;19928;-80
2021/06/04 05:01:17;;;;;;;;;;;16.20;99.90;;;;;;6061593;23;19910;-77
2021/06/04 05:09:10;;;;;;;;;;;16.30;99.90;;;;;;5949672;24;19923;-76
2021/06/04 05:11:57;;;;;;;;;;;16.20;99.90;;;;;;6029160;23;19983;-77
2021/06/04 05:14:25;;;;;;;;;;;16.30;99.90;;;;;;6175409;23;19997;-79
2021/06/04 05:17:22;;;;;;;;;;;16.30;99.90;;;;;;6157302;23;19968;-79
2021/06/04 05:19:58;;;;;;;;;;;16.40;99.90;;;;;;6204747;23;19947;-79
2021/06/04 05:22:30;;;;;;;;;;;16.50;99.90;;;;;;6194072;23;19920;-79
2021/06/04 05:25:12;;;;;;;;;;;16.50;99.90;;;;;;6169087;23;19951;-80
2021/06/04 05:27:58;;;;;;;;;;;16.60;99.90;;;;;;6172207;23;20302;-79
2021/06/04 05:30:28;;;;;;;;;;;16.70;99.90;;;;;;6189048;23;20253;-79
2021/06/04 05:32:56;;;;;;;;;;;16.70;99.90;;;;;;6189374;23;20003;-79
2021/06/04 05:35:29;;;;;;;;;;;16.70;99.90;;;;;;6164582;23;19944;-79
2021/06/04 05:37:56;;;;;;;;;;;16.80;99.90;;;;;;6166122;23;20338;-79
2021/06/04 05:40:30;;;;;;;;;;;16.70;99.90;;;;;;6189686;23;19921;-79
2021/06/04 05:42:58;;;;;;;;;;;16.70;99.90;;;;;;6166378;23;19920;-79
2021/06/04 05:45:28;;;;;;;;;;;16.80;99.90;;;;;;6191428;23;19921;-78
2021/06/04 05:47:55;;;;;;;;;;;16.80;99.90;;;;;;6191304;23;19955;-79
2021/06/04 05:50:25;;;;;;;;;;;16.80;99.90;;;;;;6165921;23;20235;-79
2021/06/04 05:52:53;;;;;;;;;;;16.90;99.90;;;;;;6167615;23;19952;-79
2021/06/04 05:55:25;;;;;;;;;;;17.00;99.90;;;;;;6168091;23;19920;-79
2021/06/04 05:57:52;;;;;;;;;;;17.00;99.90;;;;;;6191447;23;19944;-78
2021/06/04 06:00:25;;;;;;;;;;;17.10;99.90;;;;;;6166678;23;19963;-79
2021/06/04 06:02:54;;;;;;;;;;;17.20;99.90;;;;;;6191062;23;20028;-78
2021/06/04 06:05:21;;;;;;;;;;;17.30;99.90;;;;;;6167609;23;19920;-79
2021/06/04 06:07:54;;;;;;;;;;;17.30;99.90;;;;;;6191664;23;19921;-79
2021/06/04 06:10:22;;;;;;;;;;;17.40;99.90;;;;;;6166758;23;19927;-79
2021/06/04 06:12:49;;;;;;;;;;;17.40;99.90;;;;;;6192293;23;20393;-79
2021/06/04 06:15:17;;;;;;;;;;;17.50;99.90;;;;;;6192089;23;19920;-79
2021/06/04 06:17:44;;;;;;;;;;;17.60;99.90;;;;;;6192475;23;19928;-79
2021/06/04 06:20:13;;;;;;;;;;;17.60;99.90;;;;;;6167500;23;19943;-78
2021/06/04 06:22:41;;;;;;;;;;;17.70;99.90;;;;;;6193399;23;19920;-80
2021/06/04 06:25:10;;;;;;;;;;;17.90;99.90;;;;;;6174272;23;19928;-77
2021/06/04 06:27:37;;;;;;;;;;;18.00;99.90;;;;;;6192346;23;19926;-79
2021/06/04 06:30:06;;;;;;;;;;;18.10;99.90;;;;;;6166991;23;19924;-78
2021/06/04 06:32:34;;;;;;;;;;;18.10;99.90;;;;;;6167713;23;19927;-79
2021/06/04 06:35:01;;;;;;;;;;;18.20;99.90;;;;;;6168183;23;19930;-79
2021/06/04 06:37:28;;;;;;;;;;;18.30;99.90;;;;;;6192246;23;19920;-79
2021/06/04 06:39:55;;;;;;;;;;;18.40;99.90;;;;;;6168203;23;19936;-79
2021/06/04 06:42:23;;;;;;;;;;;18.40;99.90;;;;;;6168609;23;19921;-79
2021/06/04 06:44:50;;;;;;;;;;;18.50;99.90;;;;;;6168714;23;19920;-79
2021/06/04 06:47:17;;;;;;;;;;;18.60;99.90;;;;;;6167826;23;19920;-79
2021/06/04 06:49:44;;;;;;;;;;;18.60;99.90;;;;;;6168038;23;19947;-79
2021/06/04 06:52:11;;;;;;;;;;;18.70;99.90;;;;;;6192784;23;19992;-79
2021/06/04 06:54:41;;;;;;;;;;;18.70;99.90;;;;;;6168061;23;19920;-79
2021/06/04 06:57:08;;;;;;;;;;;18.70;99.90;;;;;;6167784;23;19999;-80
2021/06/04 06:59:35;;;;;;;;;;;18.80;99.90;;;;;;6168014;23;19924;-79
2021/06/04 07:02:05;;;;;;;;;;;18.80;99.90;;;;;;6192733;23;19947;-79
2021/06/04 07:04:32;;;;;;;;;;;18.90;99.90;;;;;;6193230;23;19924;-79
2021/06/04 07:06:59;;;;;;;;;;;19.00;99.90;;;;;;6193270;23;20404;-79
2021/06/04 07:09:27;;;;;;;;;;;19.10;99.90;;;;;;6206403;23;19920;-80
2021/06/04 07:11:55;;;;;;;;;;;19.20;99.90;;;;;;6210772;23;19956;-78
2021/06/04 07:14:23;;;;;;;;;;;19.30;99.90;;;;;;6185263;23;19921;-79
2021/06/04 07:16:50;;;;;;;;;;;19.40;99.90;;;;;;6179409;23;19920;-80
2021/06/04 07:19:18;;;;;;;;;;;19.50;99.90;;;;;;6193255;23;19927;-79
2021/06/04 07:21:45;;;;;;;;;;;19.50;99.90;;;;;;6193834;23;19979;-80
2021/06/04 07:24:13;;;;;;;;;;;19.50;99.90;;;;;;6169512;23;19920;-80
2021/06/04 07:26:42;;;;;;;;;;;19.60;99.90;;;;;;6169316;23;19920;-79
2021/06/04 07:29:09;;;;;;;;;;;19.70;99.90;;;;;;6194144;23;19920;-79
2021/06/04 07:31:37;;;;;;;;;;;19.80;99.90;;;;;;6168173;23;19927;-80
2021/06/04 07:34:05;;;;;;;;;;;19.80;99.90;;;;;;6192755;23;19949;-79
2021/06/04 07:36:37;;;;;;;;;;;19.90;99.90;;;;;;6168305;23;19920;-79
2021/06/04 07:39:09;;;;;;;;;;;20.00;99.90;;;;;;6168177;23;19971;-79
2021/06/04 07:41:36;;;;;;;;;;;20.00;99.90;;;;;;6167351;23;19928;-79
2021/06/04 07:44:04;;;;;;;;;;;20.10;99.90;;;;;;6167520;23;19921;-79
2021/06/04 07:46:32;;;;;;;;;;;20.20;99.90;;;;;;6193423;23;19955;-80
2021/06/04 07:49:04;;;;;;;;;;;20.30;99.90;;;;;;6170414;23;20318;-79
2021/06/04 07:51:34;;;;;;;;;;;20.40;99.90;;;;;;6168287;23;19920;-80
2021/06/04 07:54:02;;;;;;;;;;;20.50;99.90;;;;;;6192362;23;19920;-80
2021/06/04 07:56:29;;;;;;;;;;;20.50;99.90;;;;;;6193090;23;19943;-80
2021/06/04 07:58:57;;;;;;;;;;;20.60;99.90;;;;;;6168033;23;19920;-80
2021/06/04 08:01:24;;;;;;;;;;;20.70;99.90;;;;;;6169270;23;19921;-80
2021/06/04 08:03:51;;;;;;;;;;;20.80;99.90;;;;;;6168410;23;19920;-79
2021/06/04 08:06:19;;;;;;;;;;;20.80;99.90;;;;;;6191899;23;19927;-80
2021/06/04 08:08:46;;;;;;;;;;;20.90;99.90;;;;;;6168183;23;19989;-79
2021/06/04 08:11:19;;;;;;;;;;;20.80;99.90;;;;;;6168454;23;19928;-79
2021/06/04 08:13:46;;;;;;;;;;;21.00;99.90;;;;;;6169287;23;19944;-79
2021/06/04 08:16:13;;;;;;;;;;;21.00;99.90;;;;;;6194882;23;20003;-79
2021/06/04 08:18:41;;;;;;;;;;;21.10;99.90;;;;;;6168988;23;19920;-79
2021/06/04 08:21:10;;;;;;;;;;;21.10;99.90;;;;;;6194594;23;19927;-80
2021/06/04 08:23:38;;;;;;;;;;;21.20;99.90;;;;;;6193168;23;19927;-79
2021/06/04 08:26:06;;;;;;;;;;;21.20;99.90;;;;;;6168806;23;19924;-79
2021/06/04 08:28:33;;;;;;;;;;;21.30;99.90;;;;;;6168558;23;19927;-79
2021/06/04 08:31:00;;;;;;;;;;;21.40;99.90;;;;;;6192410;23;19920;-79
2021/06/04 08:33:29;;;;;;;;;;;21.50;99.90;;;;;;6192231;23;19924;-79
2021/06/04 08:35:57;;;;;;;;;;;21.60;99.90;;;;;;6167568;23;19924;-80
2021/06/04 08:38:25;;;;;;;;;;;21.80;99.90;;;;;;6166834;23;19921;-79
2021/06/04 08:40:52;;;;;;;;;;;21.90;99.90;;;;;;6191082;23;19920;-83
2021/06/04 08:43:45;;;;;;;;;;;22.10;99.90;;;;;;6166242;23;20324;-80
2021/06/04 08:46:16;;;;;;;;;;;22.10;99.90;;;;;;6193303;23;19926;-80
2021/06/04 08:48:52;;;;;;;;;;;22.00;99.90;;;;;;6166927;23;19920;-79
2021/06/04 08:51:34;;;;;;;;;;;22.10;99.90;;;;;;6191054;23;19920;-80
2021/06/04 08:54:13;;;;;;;;;;;22.30;99.90;;;;;;6191628;23;20337;-80
2021/06/04 08:56:59;;;;;;;;;;;22.40;99.90;;;;;;6192789;23;19920;-79
2021/06/04 08:59:27;;;;;;;;;;;22.50;99.90;;;;;;6166839;23;19925;-79
2021/06/04 09:02:01;;;;;;;;;;;22.70;99.90;;;;;;6166420;23;19996;-80
2021/06/04 09:04:34;;;;;;;;;;;22.70;99.90;;;;;;6190220;23;19920;-79
2021/06/04 09:07:09;;;;;;;;;;;22.80;99.90;;;;;;6191743;23;19985;-79
2021/06/04 09:09:48;;;;;;;;;;;22.90;99.90;;;;;;6191053;23;19920;-79
2021/06/04 09:12:21;;;;;;;;;;;23.00;99.90;;;;;;6192246;23;19921;-80
2021/06/04 09:14:49;;;;;;;;;;;23.00;99.90;;;;;;6166398;23;19920;-80
2021/06/04 09:17:25;;;;;;;;;;;23.10;99.90;;;;;;6175610;23;19958;-80
2021/06/04 09:19:56;;;;;;;;;;;23.20;99.90;;;;;;6164602;23;20350;-79
2021/06/04 09:22:25;;;;;;;;;;;23.30;99.90;;;;;;6187255;23;19952;-80
2021/06/04 09:24:53;;;;;;;;;;;23.40;99.90;;;;;;6188586;23;19920;-80
2021/06/04 09:27:31;;;;;;;;;;;23.50;99.90;;;;;;6166676;23;19944;-80
2021/06/04 09:30:17;;;;;;;;;;;23.50;99.90;;;;;;6163817;23;19927;-80
2021/06/04 09:33:11;;;;;;;;;;;23.60;99.90;;;;;;6188349;23;19943;-79
2021/06/04 09:35:58;;;;;;;;;;;23.70;99.90;;;;;;6162929;23;19927;-80
2021/06/04 09:38:48;;;;;;;;;;;23.70;99.90;;;;;;6164246;23;19921;-80
2021/06/04 09:41:18;;;;;;;;;;;23.80;99.90;;;;;;6148809;23;19986;-80
2021/06/04 09:43:47;;;;;;;;;;;24.00;99.90;;;;;;6190579;23;19932;-80
2021/06/04 09:46:23;;;;;;;;;;;24.00;99.90;;;;;;6190501;23;19920;-79
2021/06/04 09:48:57;;;;;;;;;;;24.00;99.90;;;;;;6190519;23;19968;-80
2021/06/04 09:51:27;;;;;;;;;;;24.20;99.90;;;;;;6191595;23;19920;-80
2021/06/04 09:53:55;;;;;;;;;;;24.40;99.90;;;;;;6193298;23;20342;-80
2021/06/04 09:56:28;;;;;;;;;;;24.60;99.90;;;;;;6169622;23;19999;-79
2021/06/04 09:59:00;;;;;;;;;;;24.80;99.90;;;;;;6170820;23;19920;-80
2021/06/04 10:01:29;;;;;;;;;;;24.80;99.90;;;;;;6195673;23;19967;-80
2021/06/04 10:04:03;;;;;;;;;;;24.90;99.90;;;;;;6194934;23;19928;-80
2021/06/04 10:06:33;;;;;;;;;;;24.90;99.90;;;;;;6171265;23;19921;-80
2021/06/04 10:09:09;;;;;;;;;;;24.90;99.90;;;;;;6172574;23;19921;-80
2021/06/04 10:11:39;;;;;;;;;;;25.00;99.90;;;;;;6172791;23;19948;-79
2021/06/04 10:19:23;;;;;;;;;;;25.10;99.90;;;;;;6189513;23;19942;-79
2021/06/04 10:21:51;;;;;;;;;;;25.10;99.90;;;;;;6167480;23;19920;-79
2021/06/04 10:24:26;;;;;;;;;;;25.20;99.90;;;;;;6172983;23;19943;-80
2021/06/04 10:26:56;;;;;;;;;;;25.30;99.30;;;;;;6182064;23;19931;-79
2021/06/04 10:29:28;;;;;;;;;;;25.60;99.90;;;;;;6209314;23;19920;-79
2021/06/04 10:31:58;;;;;;;;;;;25.70;99.10;;;;;;6186235;23;19940;-79
2021/06/04 10:34:41;;;;;;;;;;;25.90;98.10;;;;;;6182501;23;19952;-79
2021/06/04 10:37:12;;;;;;;;;;;26.20;99.10;;;;;;6201970;23;20341;-80
2021/06/04 10:39:45;;;;;;;;;;;26.30;95.60;;;;;;6201216;23;19927;-80
2021/06/04 10:42:16;;;;;;;;;;;26.40;96.50;;;;;;6177394;23;19944;-80
2021/06/04 10:44:54;;;;;;;;;;;26.40;96.20;;;;;;6203376;23;19920;-80
2021/06/04 10:47:33;;;;;;;;;;;26.50;97.30;;;;;;6178448;23;19920;-80
2021/06/04 10:50:16;;;;;;;;;;;26.50;96.30;;;;;;6201910;23;19927;-79
2021/06/04 10:52:56;;;;;;;;;;;26.50;96.00;;;;;;6200964;23;19927;-80
2021/06/04 10:55:29;;;;;;;;;;;26.40;96.40;;;;;;6177422;23;19928;-80
2021/06/04 10:58:15;;;;;;;;;;;26.50;95.40;;;;;;6203534;23;19921;-79
2021/06/04 11:00:42;;;;;;;;;;;26.60;95.40;;;;;;6179206;23;19974;-79
2021/06/04 11:03:18;;;;;;;;;;;26.80;94.30;;;;;;6203614;23;19921;-80
2021/06/04 11:05:51;;;;;;;;;;;26.90;93.20;;;;;;6171984;23;19961;-81
2021/06/04 11:08:33;;;;;;;;;;;27.10;92.50;;;;;;6169964;23;19930;-80
2021/06/04 11:11:40;;;;;;;;;;;27.10;91.40;;;;;;6174680;23;19920;-80
2021/06/04 11:14:10;;;;;;;;;;;27.20;91.60;;;;;;6065831;23;19964;-80
2021/06/04 11:16:40;;;;;;;;;;;27.30;91.60;;;;;;6157616;23;19920;-80
2021/06/04 11:19:34;;;;;;;;;;;27.30;91.30;;;;;;6178108;23;20338;-79
2021/06/04 11:22:20;;;;;;;;;;;27.10;91.70;;;;;;6173914;23;19920;-79
2021/06/04 11:24:51;;;;;;;;;;;27.00;91.60;;;;;;6178047;23;19927;-79
2021/06/04 11:27:26;;;;;;;;;;;26.90;91.30;;;;;;6203124;23;19920;-80
2021/06/04 11:29:54;;;;;;;;;;;26.90;91.20;;;;;;6195792;23;19920;-81
2021/06/04 11:32:22;;;;;;;;;;;26.90;91.50;;;;;;6192466;23;19920;-81
2021/06/04 11:35:09;;;;;;;;;;;26.80;90.10;;;;;;6176212;23;20235;-80
2021/06/04 11:37:39;;;;;;;;;;;26.60;90.10;;;;;;6178465;23;20543;-80
2021/06/04 11:40:09;;;;;;;;;;;26.40;90.90;;;;;;6202680;23;19920;-79
2021/06/04 11:42:55;;;;;;;;;;;26.20;91.20;;;;;;6179004;23;19920;-80
2021/06/04 11:45:28;;;;;;;;;;;26.00;92.10;;;;;;6179899;23;20015;-79
2021/06/04 11:48:15;;;;;;;;;;;25.80;93.20;;;;;;6202993;23;19944;-79
2021/06/04 11:50:42;;;;;;;;;;;25.70;92.90;;;;;;6202278;23;19963;-80
2021/06/04 11:53:37;;;;;;;;;;;25.60;92.50;;;;;;6198124;23;19927;-79
2021/06/04 11:56:09;;;;;;;;;;;25.30;92.70;;;;;;6186196;23;19951;-79
2021/06/04 11:58:36;;;;;;;;;;;24.60;92.70;;;;;;6186901;23;19955;-79
2021/06/04 12:01:15;;;;;;;;;;;24.20;93.10;;;;;;6167035;23;19994;-79
2021/06/04 12:03:51;;;;;;;;;;;23.60;93.70;;;;;;6167758;23;19927;-79
2021/06/04 12:06:28;;;;;;;;;;;23.10;94.30;;;;;;6188783;23;19970;-79
2021/06/04 12:08:56;;;;;;;;;;;22.40;99.90;;;;;;6159309;23;19920;-78
2021/06/04 12:11:33;;;;;;;;;;;21.80;99.90;;;;;;6135519;23;21300;-79
2021/06/04 12:14:00;;;;;;;;;;;21.30;99.90;;;;;;6185094;23;19921;-77
2021/06/04 12:16:29;;;;;;;;;;;21.00;99.90;;;;;;6184705;23;19952;-78
2021/06/04 12:19:00;;;;;;;;;;;20.70;99.90;;;;;;6185369;23;20350;-79
2021/06/04 12:21:51;;;;;;;;;;;20.50;99.90;;;;;;6184366;23;20411;-78
2021/06/04 12:24:21;;;;;;;;;;;20.40;99.90;;;;;;6131939;23;19928;-79
2021/06/04 12:26:54;;;;;;;;;;;20.30;99.90;;;;;;6186363;23;20511;-79
2021/06/04 12:29:26;;;;;;;;;;;20.10;99.90;;;;;;6161897;23;19972;-78
2021/06/04 12:32:05;;;;;;;;;;;19.90;99.90;;;;;;6160285;23;19920;-77
2021/06/04 12:34:40;;;;;;;;;;;19.80;99.90;;;;;;6184663;23;19924;-79
2021/06/04 12:37:10;;;;;;;;;;;19.80;99.90;;;;;;6186264;23;19920;-78
2021/06/04 12:39:52;;;;;;;;;;;19.90;99.90;;;;;;6186839;23;19927;-79
2021/06/04 12:42:24;;;;;;;;;;;19.90;99.90;;;;;;6163727;23;19995;-79
2021/06/04 12:45:07;;;;;;;;;;;20.00;99.90;;;;;;6162039;23;19927;-80
2021/06/04 12:47:37;;;;;;;;;;;20.00;99.90;;;;;;6187009;23;19925;-78
2021/06/04 12:50:23;;;;;;;;;;;20.00;99.90;;;;;;6162202;23;20285;-79
2021/06/04 12:52:52;;;;;;;;;;;19.90;99.90;;;;;;6186802;23;20350;-79
2021/06/04 12:55:27;;;;;;;;;;;19.70;99.90;;;;;;6186923;23;19920;-79
2021/06/04 12:58:14;;;;;;;;;;;19.60;99.90;;;;;;6164193;23;19936;-79
2021/06/04 13:00:41;;;;;;;;;;;19.60;99.90;;;;;;6162517;23;19980;-78
2021/06/04 13:03:08;;;;;;;;;;;19.60;99.90;;;;;;6188462;23;19927;-79
2021/06/04 13:05:36;;;;;;;;;;;19.60;99.90;;;;;;6187843;23;19971;-79
2021/06/04 13:08:09;;;;;;;;;;;19.70;99.90;;;;;;6188230;23;20250;-78
2021/06/04 13:10:46;;;;;;;;;;;19.70;99.90;;;;;;6189160;23;20003;-78
2021/06/04 13:13:15;;;;;;;;;;;19.60;99.90;;;;;;6188777;23;19927;-78
2021/06/04 13:15:43;;;;;;;;;;;19.50;99.90;;;;;;6164512;23;19929;-79
2021/06/04 13:18:14;;;;;;;;;;;19.50;99.90;;;;;;6188978;23;19920;-79
2021/06/04 13:20:43;;;;;;;;;;;19.40;99.90;;;;;;6189354;23;19920;-79
2021/06/04 13:23:14;;;;;;;;;;;19.20;99.90;;;;;;6165016;23;19939;-78
2021/06/04 13:25:44;;;;;;;;;;;19.10;99.90;;;;;;6165832;23;20329;-79
2021/06/04 13:28:11;;;;;;;;;;;19.20;99.90;;;;;;6166195;23;20317;-78
2021/06/04 13:30:40;;;;;;;;;;;19.20;99.90;;;;;;6165266;23;19921;-79
2021/06/04 13:33:15;;;;;;;;;;;19.20;99.90;;;;;;6189838;23;19927;-79
2021/06/04 13:35:46;;;;;;;;;;;19.20;99.90;;;;;;6165189;23;19927;-79
2021/06/04 13:38:22;;;;;;;;;;;19.30;99.90;;;;;;6164391;23;19971;-78
2021/06/04 13:40:50;;;;;;;;;;;19.20;99.90;;;;;;6164927;23;19954;-79
2021/06/04 13:43:30;;;;;;;;;;;19.20;99.90;;;;;;6194067;23;19930;-79
2021/06/04 13:45:57;;;;;;;;;;;19.00;99.90;;;;;;6208280;23;20345;-78
2021/06/04 13:48:29;;;;;;;;;;;18.90;99.90;;;;;;6182719;23;19924;-76
2021/06/04 13:51:09;;;;;;;;;;;18.90;99.90;;;;;;6205050;23;19920;-79
2021/06/04 13:53:45;;;;;;;;;;;18.90;99.90;;;;;;6190683;23;20006;-79
2021/06/04 13:56:21;;;;;;;;;;;18.90;99.90;;;;;;6165330;23;19924;-79
2021/06/04 13:58:50;;;;;;;;;;;18.90;99.90;;;;;;6189319;23;20268;-79
2021/06/04 14:01:22;;;;;;;;;;;18.90;99.90;;;;;;6189449;23;20340;-78
2021/06/04 14:03:57;;;;;;;;;;;18.90;99.90;;;;;;6166443;23;20305;-78
2021/06/04 14:06:25;;;;;;;;;;;18.80;99.90;;;;;;6190110;23;19943;-78
2021/06/04 14:08:55;;;;;;;;;;;18.80;99.90;;;;;;6164380;23;19927;-78
2021/06/04 14:11:28;;;;;;;;;;;18.70;99.90;;;;;;6164460;23;19935;-79
2021/06/04 14:13:56;;;;;;;;;;;18.60;99.90;;;;;;6187493;23;20447;-79
2021/06/04 14:16:38;;;;;;;;;;;18.60;99.90;;;;;;6162711;23;19920;-79
2021/06/04 14:19:06;;;;;;;;;;;18.60;99.90;;;;;;6161880;23;19920;-78
2021/06/04 14:21:44;;;;;;;;;;;18.60;99.90;;;;;;6163716;23;19921;-78
2021/06/04 14:24:17;;;;;;;;;;;18.60;99.90;;;;;;6163847;23;19925;-78
2021/06/04 14:26:54;;;;;;;;;;;18.70;99.90;;;;;;6188190;23;19920;-78
2021/06/04 14:29:21;;;;;;;;;;;18.70;99.90;;;;;;6187515;23;19921;-78
2021/06/04 14:31:53;;;;;;;;;;;18.70;99.90;;;;;;6162971;23;20322;-79
2021/06/04 14:34:22;;;;;;;;;;;18.70;99.90;;;;;;6162854;23;19928;-79
2021/06/04 14:36:49;;;;;;;;;;;18.70;99.90;;;;;;6163106;23;19920;-79
2021/06/04 14:39:27;;;;;;;;;;;18.80;99.90;;;;;;6162332;23;19943;-79
2021/06/04 14:41:55;;;;;;;;;;;18.90;99.90;;;;;;6185691;23;19926;-78
2021/06/04 14:44:27;;;;;;;;;;;18.80;99.90;;;;;;6162362;23;20191;-79
2021/06/04 14:46:57;;;;;;;;;;;18.90;99.90;;;;;;6160652;23;19928;-77
2021/06/04 14:49:24;;;;;;;;;;;19.00;99.90;;;;;;6185188;23;19931;-78
2021/06/04 14:51:52;;;;;;;;;;;19.00;99.90;;;;;;6184230;23;19921;-78
2021/06/04 14:54:19;;;;;;;;;;;19.20;99.90;;;;;;6184745;23;20300;-79
2021/06/04 14:56:46;;;;;;;;;;;19.20;99.90;;;;;;6184873;23;19999;-79
2021/06/04 14:59:13;;;;;;;;;;;19.20;99.90;;;;;;6186219;23;19920;-79
2021/06/04 15:01:42;;;;;;;;;;;19.10;99.90;;;;;;6183691;23;19994;-78